UAL38 RJTT-KLAX
Flight info
| Callsign | UAL38 |
|---|---|
| Flight time | N/A |
| Altitude | 35000 |
| Route | INUBO Y830 LAPIL OTR13 SEALS 3500N/15000E 3600N/16000E 3800N/17000E 3900N/18000E 4000N/17000W 3900N/16000W 3900N/15000W 3900N/14000W 3800N/13000W ALLBE PIRAT BURGL IRNMN2 |
| Aircraft | B772/H-SDE3FGIJ1KRWXY/LB2 |
Departure
| Time | N/A |
|---|---|
| Airport | Tokyo Haneda International Airport (RJTT) |
Arrival
| Time | 2026-05-05 21:18 |
|---|---|
| Airport | Los Angeles International Airport (KLAX) |
| Time | Latitude | Longitude | Altitude | Speed | Heading |
|---|---|---|---|---|---|
| 2026-05-05 20:42 | 35.99052 | -120.65180 | 35032 ft | 472 kts | 118° |
| 2026-05-05 20:43 | 35.97129 | -120.61931 | 35023 ft | 472 kts | 118° |
| 2026-05-05 20:43 | 35.93277 | -120.55435 | 35015 ft | 470 kts | 119° |
| 2026-05-05 20:44 | 35.89422 | -120.48946 | 35013 ft | 471 kts | 118° |
| 2026-05-05 20:44 | 35.85548 | -120.42434 | 34998 ft | 472 kts | 118° |
| 2026-05-05 20:45 | 35.79693 | -120.32617 | 35007 ft | 475 kts | 119° |
| 2026-05-05 20:45 | 35.75788 | -120.26084 | 35010 ft | 478 kts | 120° |
| 2026-05-05 20:46 | 35.71827 | -120.19473 | 35012 ft | 479 kts | 120° |
| 2026-05-05 20:46 | 35.67758 | -120.12995 | 34990 ft | 484 kts | 127° |
| 2026-05-05 20:47 | 35.62406 | -120.07739 | 34970 ft | 500 kts | 141° |
| 2026-05-05 20:47 | 35.56486 | -120.03198 | 34993 ft | 502 kts | 142° |
| 2026-05-05 20:48 | 35.50539 | -119.98695 | 34991 ft | 501 kts | 142° |
| 2026-05-05 20:48 | 35.44593 | -119.94209 | 34990 ft | 505 kts | 143° |
| 2026-05-05 20:49 | 35.38610 | -119.89712 | 34984 ft | 505 kts | 143° |
| 2026-05-05 20:49 | 35.32641 | -119.85236 | 34984 ft | 507 kts | 144° |
| 2026-05-05 20:50 | 35.26825 | -119.80535 | 34749 ft | 492 kts | 138° |
| 2026-05-05 20:50 | 35.24116 | -119.78007 | 33945 ft | 496 kts | 136° |
| 2026-05-05 20:50 | 35.21378 | -119.75433 | 32864 ft | 503 kts | 136° |
| 2026-05-05 20:51 | 35.18569 | -119.72799 | 31824 ft | 503 kts | 136° |
| 2026-05-05 20:51 | 35.15846 | -119.70255 | 30974 ft | 492 kts | 135° |
| 2026-05-05 20:51 | 35.13173 | -119.67765 | 30404 ft | 475 kts | 135° |
| 2026-05-05 20:51 | 35.10595 | -119.65366 | 29955 ft | 457 kts | 135° |
| 2026-05-05 20:52 | 35.08113 | -119.63057 | 29316 ft | 446 kts | 135° |
| 2026-05-05 20:52 | 35.05663 | -119.60774 | 28553 ft | 440 kts | 135° |
| 2026-05-05 20:52 | 35.03263 | -119.58536 | 27981 ft | 439 kts | 136° |
| 2026-05-05 20:52 | 35.00834 | -119.56275 | 27383 ft | 438 kts | 136° |
| 2026-05-05 20:53 | 34.98423 | -119.54035 | 27005 ft | 431 kts | 136° |
| 2026-05-05 20:53 | 34.96068 | -119.51851 | 26766 ft | 429 kts | 136° |
| 2026-05-05 20:53 | 34.93679 | -119.49631 | 26544 ft | 434 kts | 136° |
| 2026-05-05 20:53 | 34.91289 | -119.47417 | 26061 ft | 432 kts | 137° |
| 2026-05-05 20:54 | 34.88849 | -119.45208 | 25527 ft | 434 kts | 139° |
| 2026-05-05 20:54 | 34.86448 | -119.43063 | 25053 ft | 430 kts | 139° |
| 2026-05-05 20:54 | 34.84052 | -119.40926 | 24626 ft | 424 kts | 139° |
| 2026-05-05 20:54 | 34.81690 | -119.38818 | 24211 ft | 419 kts | 139° |
| 2026-05-05 20:55 | 34.79338 | -119.36719 | 23781 ft | 415 kts | 139° |
| 2026-05-05 20:55 | 34.77021 | -119.34650 | 23342 ft | 415 kts | 140° |
| 2026-05-05 20:55 | 34.74717 | -119.32594 | 22903 ft | 414 kts | 140° |
| 2026-05-05 20:55 | 34.72372 | -119.30534 | 22419 ft | 412 kts | 141° |
| 2026-05-05 20:56 | 34.70070 | -119.28525 | 21891 ft | 409 kts | 141° |
| 2026-05-05 20:56 | 34.67750 | -119.26502 | 21389 ft | 406 kts | 141° |
| 2026-05-05 20:56 | 34.65496 | -119.24537 | 20918 ft | 402 kts | 142° |
| 2026-05-05 20:56 | 34.63221 | -119.22564 | 20421 ft | 398 kts | 142° |
| 2026-05-05 20:57 | 34.60232 | -119.19989 | 19783 ft | 394 kts | 142° |
| 2026-05-05 20:57 | 34.58756 | -119.18718 | 19449 ft | 392 kts | 143° |
| 2026-05-05 20:57 | 34.56524 | -119.16797 | 18946 ft | 389 kts | 143° |
| 2026-05-05 20:57 | 34.54363 | -119.14906 | 18547 ft | 383 kts | 142° |
| 2026-05-05 20:58 | 34.52210 | -119.12994 | 18201 ft | 377 kts | 142° |
| 2026-05-05 20:58 | 34.50111 | -119.11132 | 17858 ft | 379 kts | 143° |
| 2026-05-05 20:58 | 34.47968 | -119.09233 | 17506 ft | 378 kts | 143° |
| 2026-05-05 20:58 | 34.45872 | -119.07378 | 17150 ft | 373 kts | 143° |
| 2026-05-05 20:59 | 34.43783 | -119.05532 | 16756 ft | 371 kts | 143° |
| 2026-05-05 20:59 | 34.41676 | -119.03700 | 16417 ft | 370 kts | 143° |
| 2026-05-05 20:59 | 34.39611 | -119.01914 | 16076 ft | 369 kts | 143° |
| 2026-05-05 20:59 | 34.37526 | -119.00111 | 15716 ft | 366 kts | 143° |
| 2026-05-05 21:00 | 34.35466 | -118.98329 | 15356 ft | 363 kts | 144° |
| 2026-05-05 21:00 | 34.33411 | -118.96543 | 14996 ft | 362 kts | 143° |
| 2026-05-05 21:00 | 34.31393 | -118.94712 | 14635 ft | 360 kts | 142° |
| 2026-05-05 21:00 | 34.29399 | -118.92891 | 14282 ft | 360 kts | 142° |
| 2026-05-05 21:01 | 34.27411 | -118.91081 | 13925 ft | 357 kts | 142° |
| 2026-05-05 21:01 | 34.25435 | -118.89286 | 13582 ft | 356 kts | 142° |
| 2026-05-05 21:01 | 34.23468 | -118.87484 | 13235 ft | 352 kts | 142° |
| 2026-05-05 21:01 | 34.21544 | -118.85712 | 12894 ft | 347 kts | 142° |
| 2026-05-05 21:02 | 34.19630 | -118.83950 | 12560 ft | 342 kts | 142° |
| 2026-05-05 21:02 | 34.17768 | -118.82240 | 12211 ft | 337 kts | 142° |
| 2026-05-05 21:02 | 34.15926 | -118.80543 | 12019 ft | 327 kts | 140° |
| 2026-05-05 21:02 | 34.14265 | -118.78760 | 11965 ft | 306 kts | 136° |
| 2026-05-05 21:03 | 34.12735 | -118.77029 | 12016 ft | 302 kts | 136° |
| 2026-05-05 21:03 | 34.11217 | -118.75342 | 12000 ft | 294 kts | 136° |
| 2026-05-05 21:03 | 34.09678 | -118.73657 | 11908 ft | 302 kts | 137° |
| 2026-05-05 21:03 | 34.08135 | -118.71976 | 11434 ft | 302 kts | 137° |
| 2026-05-05 21:04 | 34.06583 | -118.70292 | 10945 ft | 298 kts | 137° |
| 2026-05-05 21:04 | 34.05059 | -118.68637 | 10458 ft | 294 kts | 137° |
| 2026-05-05 21:04 | 34.03659 | -118.66867 | 9825 ft | 294 kts | 120° |
| 2026-05-05 21:04 | 34.02911 | -118.64574 | 9073 ft | 296 kts | 100° |
| 2026-05-05 21:05 | 34.02576 | -118.62138 | 8504 ft | 291 kts | 95° |
| 2026-05-05 21:05 | 34.02345 | -118.59803 | 8515 ft | 275 kts | 95° |
| 2026-05-05 21:05 | 34.02132 | -118.57546 | 8285 ft | 270 kts | 95° |
| 2026-05-05 21:05 | 34.01923 | -118.55321 | 7999 ft | 269 kts | 95° |
| 2026-05-05 21:06 | 34.01714 | -118.53092 | 7748 ft | 265 kts | 95° |
| 2026-05-05 21:06 | 34.01509 | -118.50912 | 7539 ft | 260 kts | 95° |
| 2026-05-05 21:06 | 34.01305 | -118.48751 | 7324 ft | 256 kts | 94° |
| 2026-05-05 21:06 | 34.01110 | -118.46657 | 7107 ft | 252 kts | 92° |
| 2026-05-05 21:07 | 34.01217 | -118.44579 | 6885 ft | 245 kts | 78° |
| 2026-05-05 21:07 | 34.01545 | -118.42589 | 6683 ft | 241 kts | 76° |
| 2026-05-05 21:07 | 34.01888 | -118.40642 | 6486 ft | 237 kts | 76° |
| 2026-05-05 21:07 | 34.02222 | -118.38713 | 6287 ft | 233 kts | 76° |
| 2026-05-05 21:08 | 34.02549 | -118.36821 | 6090 ft | 229 kts | 77° |
| 2026-05-05 21:08 | 34.02855 | -118.34941 | 5919 ft | 226 kts | 82° |
| 2026-05-05 21:08 | 34.03026 | -118.33064 | 5885 ft | 226 kts | 83° |
| 2026-05-05 21:08 | 34.03196 | -118.31200 | 5664 ft | 225 kts | 82° |
| 2026-05-05 21:09 | 34.03386 | -118.29293 | 5282 ft | 228 kts | 82° |
| 2026-05-05 21:09 | 34.03586 | -118.27404 | 4981 ft | 228 kts | 82° |
| 2026-05-05 21:09 | 34.03785 | -118.25532 | 4678 ft | 228 kts | 82° |
| 2026-05-05 21:09 | 34.03986 | -118.23640 | 4377 ft | 228 kts | 82° |
| 2026-05-05 21:10 | 34.04185 | -118.21751 | 4090 ft | 227 kts | 83° |
| 2026-05-05 21:10 | 34.04382 | -118.19886 | 4006 ft | 225 kts | 83° |
| 2026-05-05 21:10 | 34.04583 | -118.17976 | 3998 ft | 227 kts | 83° |
| 2026-05-05 21:10 | 34.04781 | -118.16087 | 3997 ft | 227 kts | 83° |
| 2026-05-05 21:11 | 34.04976 | -118.14229 | 3996 ft | 226 kts | 83° |
| 2026-05-05 21:11 | 34.05012 | -118.12335 | 3992 ft | 227 kts | 103° |
| 2026-05-05 21:11 | 34.04273 | -118.10671 | 3984 ft | 226 kts | 135° |
| 2026-05-05 21:11 | 34.02934 | -118.09757 | 3985 ft | 225 kts | 168° |
| 2026-05-05 21:12 | 34.01388 | -118.09840 | 3979 ft | 223 kts | 200° |
| 2026-05-05 21:12 | 33.99980 | -118.10625 | 3991 ft | 223 kts | 208° |
| 2026-05-05 21:12 | 33.98694 | -118.11658 | 3987 ft | 221 kts | 229° |
| 2026-05-05 21:12 | 33.98019 | -118.13288 | 3983 ft | 216 kts | 256° |
| 2026-05-05 21:13 | 33.97742 | -118.14990 | 3982 ft | 200 kts | 262° |
| 2026-05-05 21:13 | 33.97586 | -118.16605 | 3911 ft | 193 kts | 264° |
| 2026-05-05 21:13 | 33.97442 | -118.18198 | 3670 ft | 190 kts | 264° |
| 2026-05-05 21:13 | 33.97293 | -118.19762 | 3434 ft | 187 kts | 263° |
| 2026-05-05 21:14 | 33.97140 | -118.21307 | 3196 ft | 185 kts | 263° |
| 2026-05-05 21:14 | 33.96987 | -118.22822 | 2955 ft | 176 kts | 263° |
| 2026-05-05 21:14 | 33.96846 | -118.24229 | 2734 ft | 165 kts | 263° |
| 2026-05-05 21:14 | 33.96713 | -118.25544 | 2529 ft | 151 kts | 262° |
| 2026-05-05 21:15 | 33.96587 | -118.26777 | 2340 ft | 146 kts | 262° |
| 2026-05-05 21:15 | 33.96463 | -118.27979 | 2148 ft | 143 kts | 262° |
| 2026-05-05 21:15 | 33.96342 | -118.29162 | 1957 ft | 144 kts | 262° |
| 2026-05-05 21:15 | 33.96220 | -118.30355 | 1759 ft | 143 kts | 262° |
| 2026-05-05 21:16 | 33.96097 | -118.31559 | 1561 ft | 143 kts | 262° |
| 2026-05-05 21:16 | 33.95976 | -118.32749 | 1366 ft | 142 kts | 262° |
| 2026-05-05 21:16 | 33.95855 | -118.33923 | 1176 ft | 141 kts | 261° |
| 2026-05-05 21:16 | 33.95733 | -118.35084 | 977 ft | 140 kts | 261° |
| 2026-05-05 21:17 | 33.95625 | -118.36249 | 759 ft | 138 kts | 262° |
| 2026-05-05 21:17 | 33.95507 | -118.37382 | 584 ft | 136 kts | 259° |
| 2026-05-05 21:17 | 33.95382 | -118.38520 | 408 ft | 137 kts | 262° |
| 2026-05-05 21:17 | 33.95275 | -118.39647 | 244 ft | 136 kts | 261° |
| 2026-05-05 21:18 | 33.95156 | -118.40779 | 129 ft | 125 kts | 261° |
| 2026-05-05 21:18 | 33.95063 | -118.41630 | 130 ft | 76 kts | 263° |
| 2026-05-05 21:18 | 33.95020 | -118.42032 | 127 ft | 41 kts | 256° |
| 2026-05-05 21:18 | 33.94883 | -118.42266 | 126 ft | 23 kts | 216° |
| 2026-05-05 21:19 | 33.94725 | -118.42273 | 123 ft | 21 kts | 173° |
| 2026-05-05 21:19 | 33.94681 | -118.42256 | 123 ft | 2 kts | 98° |
| 2026-05-05 21:19 | 33.94690 | -118.42165 | 124 ft | 21 kts | 81° |
| 2026-05-05 21:19 | 33.94708 | -118.42004 | 127 ft | 7 kts | 83° |
| 2026-05-05 21:20 | 33.94698 | -118.41947 | 127 ft | 6 kts | 159° |
| 2026-05-05 21:20 | 33.94646 | -118.41931 | 126 ft | 9 kts | 165° |
| 2026-05-05 21:20 | 33.94574 | -118.41916 | 125 ft | 12 kts | 173° |
| 2026-05-05 21:20 | 33.94480 | -118.41904 | 123 ft | 14 kts | 174° |
| 2026-05-05 21:21 | 33.94371 | -118.41888 | 123 ft | 16 kts | 173° |
| 2026-05-05 21:21 | 33.94256 | -118.41870 | 123 ft | 17 kts | 172° |
| 2026-05-05 21:21 | 33.94131 | -118.41850 | 123 ft | 18 kts | 174° |
| 2026-05-05 21:21 | 33.94002 | -118.41831 | 123 ft | 19 kts | 174° |
| 2026-05-05 21:22 | 33.93870 | -118.41814 | 126 ft | 18 kts | 174° |
| 2026-05-05 21:22 | 33.93744 | -118.41795 | 127 ft | 18 kts | 166° |
| 2026-05-05 21:22 | 33.93708 | -118.41672 | 130 ft | 17 kts | 85° |
| 2026-05-05 21:22 | 33.93722 | -118.41530 | 132 ft | 17 kts | 82° |
| 2026-05-05 21:23 | 33.93744 | -118.41323 | 133 ft | 25 kts | 83° |
| 2026-05-05 21:23 | 33.93767 | -118.41108 | 133 ft | 26 kts | 83° |
| 2026-05-05 21:23 | 33.93790 | -118.40884 | 133 ft | 27 kts | 83° |
| 2026-05-05 21:23 | 33.93813 | -118.40653 | 133 ft | 28 kts | 84° |
| 2026-05-05 21:24 | 33.93839 | -118.40402 | 128 ft | 31 kts | 83° |
| 2026-05-05 21:24 | 33.93860 | -118.40182 | 126 ft | 25 kts | 84° |
| 2026-05-05 21:24 | 33.93880 | -118.39994 | 123 ft | 19 kts | 81° |
| 2026-05-05 21:24 | 33.93910 | -118.39829 | 120 ft | 20 kts | 34° |
| 2026-05-05 21:25 | 33.94015 | -118.39826 | 120 ft | 12 kts | 350° |
| 2026-05-05 21:25 | 33.94076 | -118.39859 | 121 ft | 5 kts | 309° |
| 2026-05-05 21:25 | 33.94094 | -118.39887 | 121 ft | 3 kts | 308° |
| 2026-05-05 21:25 | 33.94105 | -118.39904 | 121 ft | 0 kts | 307° |
| 2026-05-05 21:26 | 33.94108 | -118.39909 | 122 ft | 0 kts | 307° |